sensor_id;sensor_type;location;lat;lon;timestamp;P1;durP1;ratioP1;P2;durP2;ratioP2
6392;SDS011;3229;42.674;23.282;2023-09-19T00:00:16;6.63;;;5.00;;
6392;SDS011;3229;42.674;23.282;2023-09-19T00:02:45;6.07;;;5.50;;
6392;SDS011;3229;42.674;23.282;2023-09-19T00:05:13;5.67;;;5.10;;
6392;SDS011;3229;42.674;23.282;2023-09-19T00:07:40;6.50;;;5.50;;
6392;SDS011;3229;42.674;23.282;2023-09-19T00:10:07;6.57;;;5.10;;
6392;SDS011;3229;42.674;23.282;2023-09-19T00:12:35;6.20;;;5.13;;
6392;SDS011;3229;42.674;23.282;2023-09-19T00:15:03;5.57;;;5.00;;
6392;SDS011;3229;42.674;23.282;2023-09-19T00:17:31;5.23;;;4.73;;
6392;SDS011;3229;42.674;23.282;2023-09-19T00:20:00;6.60;;;5.47;;
6392;SDS011;3229;42.674;23.282;2023-09-19T00:22:39;6.30;;;4.77;;
6392;SDS011;3229;42.674;23.282;2023-09-19T00:25:07;5.67;;;5.13;;
6392;SDS011;3229;42.674;23.282;2023-09-19T00:27:34;5.60;;;4.63;;
6392;SDS011;3229;42.674;23.282;2023-09-19T00:30:06;5.23;;;4.73;;
6392;SDS011;3229;42.674;23.282;2023-09-19T00:32:39;6.43;;;4.83;;
6392;SDS011;3229;42.674;23.282;2023-09-19T00:35:06;6.20;;;5.60;;
6392;SDS011;3229;42.674;23.282;2023-09-19T00:37:35;8.37;;;5.07;;
6392;SDS011;3229;42.674;23.282;2023-09-19T00:40:02;5.50;;;5.00;;
6392;SDS011;3229;42.674;23.282;2023-09-19T00:42:30;7.87;;;5.40;;
6392;SDS011;3229;42.674;23.282;2023-09-19T00:44:58;6.77;;;5.23;;
6392;SDS011;3229;42.674;23.282;2023-09-19T00:47:30;5.70;;;5.10;;
6392;SDS011;3229;42.674;23.282;2023-09-19T00:49:56;6.47;;;4.90;;
6392;SDS011;3229;42.674;23.282;2023-09-19T00:52:23;5.13;;;4.67;;
6392;SDS011;3229;42.674;23.282;2023-09-19T00:54:51;7.03;;;5.13;;
6392;SDS011;3229;42.674;23.282;2023-09-19T00:57:18;6.53;;;5.93;;
6392;SDS011;3229;42.674;23.282;2023-09-19T00:59:47;9.17;;;5.33;;
6392;SDS011;3229;42.674;23.282;2023-09-19T01:02:19;5.70;;;5.20;;
6392;SDS011;3229;42.674;23.282;2023-09-19T01:04:48;7.63;;;5.63;;
6392;SDS011;3229;42.674;23.282;2023-09-19T01:07:15;6.00;;;5.27;;
6392;SDS011;3229;42.674;23.282;2023-09-19T01:09:43;6.50;;;5.90;;
6392;SDS011;3229;42.674;23.282;2023-09-19T01:12:10;7.00;;;5.13;;
6392;SDS011;3229;42.674;23.282;2023-09-19T01:14:44;7.17;;;5.40;;
6392;SDS011;3229;42.674;23.282;2023-09-19T01:17:24;6.60;;;5.70;;
6392;SDS011;3229;42.674;23.282;2023-09-19T01:23:04;8.83;;;5.63;;
6392;SDS011;3229;42.674;23.282;2023-09-19T01:28:51;9.87;;;5.57;;
6392;SDS011;3229;42.674;23.282;2023-09-19T01:31:24;7.87;;;6.10;;
6392;SDS011;3229;42.674;23.282;2023-09-19T01:33:55;8.90;;;6.17;;
6392;SDS011;3229;42.674;23.282;2023-09-19T01:36:24;5.27;;;4.73;;
6392;SDS011;3229;42.674;23.282;2023-09-19T01:38:55;7.30;;;5.83;;
6392;SDS011;3229;42.674;23.282;2023-09-19T01:41:31;8.37;;;5.73;;
6392;SDS011;3229;42.674;23.282;2023-09-19T01:44:06;6.93;;;5.50;;
6392;SDS011;3229;42.674;23.282;2023-09-19T01:46:42;7.70;;;5.97;;
6392;SDS011;3229;42.674;23.282;2023-09-19T01:49:16;5.63;;;5.13;;
6392;SDS011;3229;42.674;23.282;2023-09-19T01:51:59;7.63;;;5.87;;
6392;SDS011;3229;42.674;23.282;2023-09-19T01:54:32;9.47;;;5.80;;
6392;SDS011;3229;42.674;23.282;2023-09-19T01:57:04;10.10;;;5.77;;
6392;SDS011;3229;42.674;23.282;2023-09-19T01:59:36;7.73;;;6.03;;
6392;SDS011;3229;42.674;23.282;2023-09-19T02:02:09;6.27;;;5.67;;
6392;SDS011;3229;42.674;23.282;2023-09-19T02:04:37;8.43;;;5.77;;
6392;SDS011;3229;42.674;23.282;2023-09-19T02:07:04;15.17;;;6.13;;
6392;SDS011;3229;42.674;23.282;2023-09-19T02:09:33;6.10;;;5.50;;
6392;SDS011;3229;42.674;23.282;2023-09-19T02:12:00;6.53;;;5.83;;
6392;SDS011;3229;42.674;23.282;2023-09-19T02:14:29;8.50;;;6.17;;
6392;SDS011;3229;42.674;23.282;2023-09-19T02:16:57;6.40;;;5.80;;
6392;SDS011;3229;42.674;23.282;2023-09-19T02:19:26;9.00;;;5.70;;
6392;SDS011;3229;42.674;23.282;2023-09-19T02:21:53;7.17;;;6.27;;
6392;SDS011;3229;42.674;23.282;2023-09-19T02:24:20;8.13;;;5.50;;
6392;SDS011;3229;42.674;23.282;2023-09-19T02:26:46;8.97;;;6.00;;
6392;SDS011;3229;42.674;23.282;2023-09-19T02:29:13;6.40;;;5.67;;
6392;SDS011;3229;42.674;23.282;2023-09-19T02:31:40;6.90;;;6.20;;
6392;SDS011;3229;42.674;23.282;2023-09-19T02:34:07;6.13;;;5.53;;
6392;SDS011;3229;42.674;23.282;2023-09-19T02:36:36;7.33;;;5.93;;
6392;SDS011;3229;42.674;23.282;2023-09-19T02:39:03;11.17;;;6.13;;
6392;SDS011;3229;42.674;23.282;2023-09-19T02:41:31;7.13;;;5.77;;
6392;SDS011;3229;42.674;23.282;2023-09-19T02:43:58;8.47;;;6.30;;
6392;SDS011;3229;42.674;23.282;2023-09-19T02:46:26;8.90;;;5.97;;
6392;SDS011;3229;42.674;23.282;2023-09-19T02:48:53;6.57;;;5.83;;
6392;SDS011;3229;42.674;23.282;2023-09-19T02:51:21;6.63;;;5.93;;
6392;SDS011;3229;42.674;23.282;2023-09-19T02:53:49;8.90;;;5.83;;
6392;SDS011;3229;42.674;23.282;2023-09-19T02:56:17;13.47;;;6.40;;
6392;SDS011;3229;42.674;23.282;2023-09-19T02:58:44;7.13;;;6.20;;
6392;SDS011;3229;42.674;23.282;2023-09-19T03:01:11;7.47;;;5.80;;
6392;SDS011;3229;42.674;23.282;2023-09-19T03:03:38;10.00;;;7.20;;
6392;SDS011;3229;42.674;23.282;2023-09-19T03:06:06;8.67;;;6.10;;
6392;SDS011;3229;42.674;23.282;2023-09-19T03:08:34;6.57;;;5.67;;
6392;SDS011;3229;42.674;23.282;2023-09-19T03:11:04;8.27;;;6.37;;
6392;SDS011;3229;42.674;23.282;2023-09-19T03:13:33;6.63;;;5.87;;
6392;SDS011;3229;42.674;23.282;2023-09-19T03:16:01;13.40;;;6.13;;
6392;SDS011;3229;42.674;23.282;2023-09-19T03:18:30;10.63;;;6.30;;
6392;SDS011;3229;42.674;23.282;2023-09-19T03:20:58;7.47;;;6.43;;
6392;SDS011;3229;42.674;23.282;2023-09-19T03:23:25;11.47;;;6.23;;
6392;SDS011;3229;42.674;23.282;2023-09-19T03:25:54;9.07;;;6.53;;
6392;SDS011;3229;42.674;23.282;2023-09-19T03:28:23;7.47;;;5.87;;
6392;SDS011;3229;42.674;23.282;2023-09-19T03:30:59;8.57;;;5.97;;
6392;SDS011;3229;42.674;23.282;2023-09-19T03:33:27;10.03;;;6.67;;
6392;SDS011;3229;42.674;23.282;2023-09-19T03:35:56;7.77;;;5.93;;
6392;SDS011;3229;42.674;23.282;2023-09-19T03:38:24;6.60;;;6.00;;
6392;SDS011;3229;42.674;23.282;2023-09-19T03:40:51;11.10;;;6.20;;
6392;SDS011;3229;42.674;23.282;2023-09-19T03:43:19;12.47;;;6.90;;
6392;SDS011;3229;42.674;23.282;2023-09-19T03:45:47;6.67;;;6.07;;
6392;SDS011;3229;42.674;23.282;2023-09-19T03:48:16;6.70;;;5.97;;
6392;SDS011;3229;42.674;23.282;2023-09-19T03:50:42;8.77;;;6.50;;
6392;SDS011;3229;42.674;23.282;2023-09-19T03:53:09;8.03;;;6.30;;
6392;SDS011;3229;42.674;23.282;2023-09-19T03:55:36;8.37;;;5.73;;
6392;SDS011;3229;42.674;23.282;2023-09-19T03:58:04;7.63;;;6.83;;
6392;SDS011;3229;42.674;23.282;2023-09-19T04:00:31;9.70;;;6.00;;
6392;SDS011;3229;42.674;23.282;2023-09-19T04:03:00;9.17;;;6.20;;
6392;SDS011;3229;42.674;23.282;2023-09-19T04:05:31;9.97;;;5.90;;
6392;SDS011;3229;42.674;23.282;2023-09-19T04:07:57;10.13;;;7.03;;
6392;SDS011;3229;42.674;23.282;2023-09-19T04:10:24;6.83;;;6.13;;
6392;SDS011;3229;42.674;23.282;2023-09-19T04:12:51;9.90;;;6.57;;
6392;SDS011;3229;42.674;23.282;2023-09-19T04:15:19;8.63;;;7.00;;
6392;SDS011;3229;42.674;23.282;2023-09-19T04:17:48;11.17;;;6.70;;
6392;SDS011;3229;42.674;23.282;2023-09-19T04:20:16;13.40;;;6.63;;
6392;SDS011;3229;42.674;23.282;2023-09-19T04:22:44;9.67;;;6.60;;
6392;SDS011;3229;42.674;23.282;2023-09-19T04:25:11;10.73;;;6.73;;
6392;SDS011;3229;42.674;23.282;2023-09-19T04:27:38;13.77;;;6.93;;
6392;SDS011;3229;42.674;23.282;2023-09-19T04:30:06;7.13;;;6.17;;
6392;SDS011;3229;42.674;23.282;2023-09-19T04:32:36;9.87;;;6.17;;
6392;SDS011;3229;42.674;23.282;2023-09-19T04:35:05;7.50;;;6.23;;
6392;SDS011;3229;42.674;23.282;2023-09-19T04:37:37;8.83;;;7.40;;
6392;SDS011;3229;42.674;23.282;2023-09-19T04:40:05;8.63;;;6.80;;
6392;SDS011;3229;42.674;23.282;2023-09-19T04:42:38;12.33;;;6.20;;
6392;SDS011;3229;42.674;23.282;2023-09-19T04:45:05;7.97;;;6.60;;
6392;SDS011;3229;42.674;23.282;2023-09-19T04:47:34;11.73;;;7.13;;
6392;SDS011;3229;42.674;23.282;2023-09-19T04:50:06;8.93;;;6.50;;
6392;SDS011;3229;42.674;23.282;2023-09-19T04:52:39;9.20;;;6.40;;
6392;SDS011;3229;42.674;23.282;2023-09-19T04:55:09;8.83;;;6.67;;
6392;SDS011;3229;42.674;23.282;2023-09-19T04:57:42;11.03;;;7.70;;
6392;SDS011;3229;42.674;23.282;2023-09-19T05:00:11;11.53;;;7.03;;
6392;SDS011;3229;42.674;23.282;2023-09-19T05:02:39;8.87;;;7.50;;
6392;SDS011;3229;42.674;23.282;2023-09-19T05:05:07;11.03;;;6.87;;
6392;SDS011;3229;42.674;23.282;2023-09-19T05:07:35;10.77;;;7.17;;
6392;SDS011;3229;42.674;23.282;2023-09-19T05:10:03;7.83;;;7.03;;
6392;SDS011;3229;42.674;23.282;2023-09-19T05:12:32;11.13;;;6.70;;
6392;SDS011;3229;42.674;23.282;2023-09-19T05:15:00;11.60;;;7.40;;
6392;SDS011;3229;42.674;23.282;2023-09-19T05:17:28;9.07;;;6.10;;
6392;SDS011;3229;42.674;23.282;2023-09-19T05:19:55;10.50;;;6.37;;
6392;SDS011;3229;42.674;23.282;2023-09-19T05:22:22;9.20;;;5.97;;
6392;SDS011;3229;42.674;23.282;2023-09-19T05:24:49;14.50;;;7.13;;
6392;SDS011;3229;42.674;23.282;2023-09-19T05:27:19;7.43;;;6.70;;
6392;SDS011;3229;42.674;23.282;2023-09-19T05:29:46;7.40;;;6.40;;
6392;SDS011;3229;42.674;23.282;2023-09-19T05:32:14;7.63;;;5.80;;
6392;SDS011;3229;42.674;23.282;2023-09-19T05:34:41;9.13;;;6.25;;
6392;SDS011;3229;42.674;23.282;2023-09-19T05:37:07;10.00;;;6.40;;
6392;SDS011;3229;42.674;23.282;2023-09-19T05:39:34;11.30;;;7.22;;
6392;SDS011;3229;42.674;23.282;2023-09-19T05:42:02;11.27;;;6.32;;
6392;SDS011;3229;42.674;23.282;2023-09-19T05:44:31;13.38;;;7.43;;
6392;SDS011;3229;42.674;23.282;2023-09-19T05:46:58;11.95;;;6.72;;
6392;SDS011;3229;42.674;23.282;2023-09-19T05:49:25;11.85;;;7.07;;
6392;SDS011;3229;42.674;23.282;2023-09-19T05:51:52;13.40;;;6.88;;
6392;SDS011;3229;42.674;23.282;2023-09-19T05:54:21;12.10;;;7.18;;
6392;SDS011;3229;42.674;23.282;2023-09-19T05:56:48;11.50;;;6.88;;
6392;SDS011;3229;42.674;23.282;2023-09-19T05:59:18;13.18;;;7.53;;
6392;SDS011;3229;42.674;23.282;2023-09-19T06:01:46;16.55;;;7.75;;
6392;SDS011;3229;42.674;23.282;2023-09-19T06:04:13;10.60;;;6.63;;
6392;SDS011;3229;42.674;23.282;2023-09-19T06:06:40;9.45;;;6.38;;
6392;SDS011;3229;42.674;23.282;2023-09-19T06:09:07;7.35;;;6.55;;
6392;SDS011;3229;42.674;23.282;2023-09-19T06:11:34;6.03;;;5.43;;
6392;SDS011;3229;42.674;23.282;2023-09-19T06:14:01;8.15;;;5.45;;
6392;SDS011;3229;42.674;23.282;2023-09-19T06:16:28;9.30;;;5.05;;
6392;SDS011;3229;42.674;23.282;2023-09-19T06:18:56;7.95;;;5.93;;
6392;SDS011;3229;42.674;23.282;2023-09-19T06:21:24;7.45;;;5.03;;
6392;SDS011;3229;42.674;23.282;2023-09-19T06:23:51;8.73;;;5.68;;
6392;SDS011;3229;42.674;23.282;2023-09-19T06:26:19;12.13;;;5.55;;
6392;SDS011;3229;42.674;23.282;2023-09-19T06:28:46;6.18;;;5.47;;
6392;SDS011;3229;42.674;23.282;2023-09-19T06:31:13;8.52;;;5.50;;
6392;SDS011;3229;42.674;23.282;2023-09-19T06:33:40;10.63;;;5.85;;
6392;SDS011;3229;42.674;23.282;2023-09-19T06:36:09;7.78;;;5.10;;
6392;SDS011;3229;42.674;23.282;2023-09-19T06:38:36;12.15;;;5.00;;
6392;SDS011;3229;42.674;23.282;2023-09-19T06:41:04;9.02;;;5.07;;
6392;SDS011;3229;42.674;23.282;2023-09-19T06:43:32;5.63;;;5.00;;
6392;SDS011;3229;42.674;23.282;2023-09-19T06:46:00;7.88;;;5.00;;
6392;SDS011;3229;42.674;23.282;2023-09-19T06:48:27;8.93;;;5.75;;
6392;SDS011;3229;42.674;23.282;2023-09-19T06:50:54;8.25;;;5.05;;
6392;SDS011;3229;42.674;23.282;2023-09-19T06:53:25;5.70;;;4.75;;
6392;SDS011;3229;42.674;23.282;2023-09-19T06:55:52;6.80;;;5.60;;
6392;SDS011;3229;42.674;23.282;2023-09-19T06:58:19;12.40;;;6.20;;
6392;SDS011;3229;42.674;23.282;2023-09-19T07:00:46;7.80;;;4.60;;
6392;SDS011;3229;42.674;23.282;2023-09-19T07:03:15;7.85;;;5.10;;
6392;SDS011;3229;42.674;23.282;2023-09-19T07:05:46;9.30;;;5.43;;
6392;SDS011;3229;42.674;23.282;2023-09-19T07:08:14;8.82;;;5.18;;
6392;SDS011;3229;42.674;23.282;2023-09-19T07:10:42;8.10;;;4.97;;
6392;SDS011;3229;42.674;23.282;2023-09-19T07:13:13;8.68;;;5.10;;
6392;SDS011;3229;42.674;23.282;2023-09-19T07:15:42;7.38;;;4.57;;
6392;SDS011;3229;42.674;23.282;2023-09-19T07:18:12;8.45;;;5.13;;
6392;SDS011;3229;42.674;23.282;2023-09-19T07:20:40;10.05;;;4.90;;
6392;SDS011;3229;42.674;23.282;2023-09-19T07:23:10;4.82;;;4.22;;
6392;SDS011;3229;42.674;23.282;2023-09-19T07:25:39;7.82;;;4.95;;
6392;SDS011;3229;42.674;23.282;2023-09-19T07:28:07;5.43;;;4.93;;
6392;SDS011;3229;42.674;23.282;2023-09-19T07:30:36;8.57;;;4.90;;
6392;SDS011;3229;42.674;23.282;2023-09-19T07:33:04;5.60;;;4.93;;
6392;SDS011;3229;42.674;23.282;2023-09-19T07:35:31;5.07;;;4.18;;
6392;SDS011;3229;42.674;23.282;2023-09-19T07:37:58;8.63;;;5.15;;
6392;SDS011;3229;42.674;23.282;2023-09-19T07:40:26;9.50;;;4.78;;
6392;SDS011;3229;42.674;23.282;2023-09-19T07:42:54;8.65;;;4.78;;
6392;SDS011;3229;42.674;23.282;2023-09-19T07:45:22;7.32;;;4.68;;
6392;SDS011;3229;42.674;23.282;2023-09-19T07:47:50;9.40;;;5.07;;
6392;SDS011;3229;42.674;23.282;2023-09-19T07:50:17;6.60;;;4.70;;
6392;SDS011;3229;42.674;23.282;2023-09-19T07:52:45;5.57;;;4.50;;
6392;SDS011;3229;42.674;23.282;2023-09-19T07:55:12;13.30;;;5.55;;
6392;SDS011;3229;42.674;23.282;2023-09-19T07:57:41;7.07;;;4.80;;
6392;SDS011;3229;42.674;23.282;2023-09-19T08:00:09;9.02;;;5.40;;
6392;SDS011;3229;42.674;23.282;2023-09-19T08:02:38;8.30;;;5.10;;
6392;SDS011;3229;42.674;23.282;2023-09-19T08:05:07;7.88;;;5.07;;
6392;SDS011;3229;42.674;23.282;2023-09-19T08:07:36;12.07;;;5.40;;
6392;SDS011;3229;42.674;23.282;2023-09-19T08:10:03;6.85;;;5.20;;
6392;SDS011;3229;42.674;23.282;2023-09-19T08:12:32;11.98;;;5.25;;
6392;SDS011;3229;42.674;23.282;2023-09-19T08:15:00;8.93;;;5.88;;
6392;SDS011;3229;42.674;23.282;2023-09-19T08:17:27;7.20;;;5.38;;
6392;SDS011;3229;42.674;23.282;2023-09-19T08:19:55;8.90;;;5.75;;
6392;SDS011;3229;42.674;23.282;2023-09-19T08:22:22;7.18;;;5.38;;
6392;SDS011;3229;42.674;23.282;2023-09-19T08:24:49;6.07;;;5.10;;
6392;SDS011;3229;42.674;23.282;2023-09-19T08:27:16;8.15;;;5.45;;
6392;SDS011;3229;42.674;23.282;2023-09-19T08:29:43;11.43;;;5.10;;
6392;SDS011;3229;42.674;23.282;2023-09-19T08:32:10;8.98;;;5.32;;
6392;SDS011;3229;42.674;23.282;2023-09-19T08:34:37;7.78;;;5.50;;
6392;SDS011;3229;42.674;23.282;2023-09-19T08:37:05;10.80;;;5.65;;
6392;SDS011;3229;42.674;23.282;2023-09-19T08:39:32;8.65;;;5.47;;
6392;SDS011;3229;42.674;23.282;2023-09-19T08:42:00;7.97;;;5.45;;
6392;SDS011;3229;42.674;23.282;2023-09-19T08:44:29;7.47;;;5.30;;
6392;SDS011;3229;42.674;23.282;2023-09-19T08:46:58;7.65;;;5.55;;
6392;SDS011;3229;42.674;23.282;2023-09-19T08:49:33;8.73;;;5.43;;
6392;SDS011;3229;42.674;23.282;2023-09-19T08:52:18;12.18;;;5.05;;
6392;SDS011;3229;42.674;23.282;2023-09-19T08:54:48;10.43;;;5.30;;
6392;SDS011;3229;42.674;23.282;2023-09-19T08:57:18;9.32;;;4.80;;
6392;SDS011;3229;42.674;23.282;2023-09-19T08:59:47;7.75;;;5.95;;
6392;SDS011;3229;42.674;23.282;2023-09-19T09:02:15;7.63;;;5.60;;
6392;SDS011;3229;42.674;23.282;2023-09-19T09:04:43;8.35;;;5.13;;
6392;SDS011;3229;42.674;23.282;2023-09-19T09:07:14;9.38;;;5.28;;
6392;SDS011;3229;42.674;23.282;2023-09-19T09:09:42;8.90;;;5.50;;
6392;SDS011;3229;42.674;23.282;2023-09-19T09:12:09;7.82;;;5.00;;
6392;SDS011;3229;42.674;23.282;2023-09-19T09:14:38;8.48;;;6.00;;
6392;SDS011;3229;42.674;23.282;2023-09-19T09:17:06;10.50;;;6.00;;
6392;SDS011;3229;42.674;23.282;2023-09-19T09:19:34;15.65;;;5.95;;
6392;SDS011;3229;42.674;23.282;2023-09-19T09:22:07;7.82;;;5.95;;
6392;SDS011;3229;42.674;23.282;2023-09-19T09:24:36;10.93;;;5.80;;
6392;SDS011;3229;42.674;23.282;2023-09-19T09:27:05;8.05;;;5.60;;
6392;SDS011;3229;42.674;23.282;2023-09-19T09:29:40;8.48;;;6.13;;
6392;SDS011;3229;42.674;23.282;2023-09-19T09:32:21;10.02;;;5.68;;
6392;SDS011;3229;42.674;23.282;2023-09-19T09:34:50;8.60;;;5.25;;
6392;SDS011;3229;42.674;23.282;2023-09-19T09:37:18;8.73;;;5.55;;
6392;SDS011;3229;42.674;23.282;2023-09-19T09:39:51;7.93;;;5.85;;
6392;SDS011;3229;42.674;23.282;2023-09-19T09:42:30;13.35;;;5.68;;
6392;SDS011;3229;42.674;23.282;2023-09-19T09:45:13;7.00;;;5.55;;
6392;SDS011;3229;42.674;23.282;2023-09-19T09:47:41;8.90;;;5.55;;
6392;SDS011;3229;42.674;23.282;2023-09-19T09:50:22;7.18;;;5.65;;
6392;SDS011;3229;42.674;23.282;2023-09-19T09:52:54;12.20;;;5.28;;
6392;SDS011;3229;42.674;23.282;2023-09-19T09:55:41;9.77;;;5.72;;
6392;SDS011;3229;42.674;23.282;2023-09-19T09:58:24;7.93;;;5.88;;
6392;SDS011;3229;42.674;23.282;2023-09-19T10:00:54;11.30;;;5.72;;
6392;SDS011;3229;42.674;23.282;2023-09-19T10:03:30;6.70;;;5.22;;
6392;SDS011;3229;42.674;23.282;2023-09-19T10:05:59;5.88;;;5.28;;
6392;SDS011;3229;42.674;23.282;2023-09-19T10:08:36;10.20;;;5.43;;
6392;SDS011;3229;42.674;23.282;2023-09-19T10:11:16;7.25;;;5.38;;
6392;SDS011;3229;42.674;23.282;2023-09-19T10:13:44;9.95;;;5.68;;
6392;SDS011;3229;42.674;23.282;2023-09-19T10:16:12;8.35;;;5.47;;
6392;SDS011;3229;42.674;23.282;2023-09-19T10:18:43;8.07;;;6.10;;
6392;SDS011;3229;42.674;23.282;2023-09-19T10:21:14;10.20;;;5.45;;
6392;SDS011;3229;42.674;23.282;2023-09-19T10:23:47;9.35;;;5.32;;
6392;SDS011;3229;42.674;23.282;2023-09-19T10:26:18;8.23;;;5.63;;
6392;SDS011;3229;42.674;23.282;2023-09-19T10:28:49;9.25;;;5.65;;
6392;SDS011;3229;42.674;23.282;2023-09-19T10:31:19;9.60;;;5.15;;
6392;SDS011;3229;42.674;23.282;2023-09-19T10:33:49;6.55;;;5.00;;
6392;SDS011;3229;42.674;23.282;2023-09-19T10:36:16;7.65;;;4.93;;
6392;SDS011;3229;42.674;23.282;2023-09-19T10:38:45;6.97;;;5.38;;
6392;SDS011;3229;42.674;23.282;2023-09-19T10:41:14;9.35;;;5.18;;
6392;SDS011;3229;42.674;23.282;2023-09-19T10:43:44;7.43;;;5.63;;
6392;SDS011;3229;42.674;23.282;2023-09-19T10:46:14;8.93;;;5.57;;
6392;SDS011;3229;42.674;23.282;2023-09-19T10:48:41;5.97;;;5.32;;
6392;SDS011;3229;42.674;23.282;2023-09-19T10:51:15;6.07;;;4.95;;
6392;SDS011;3229;42.674;23.282;2023-09-19T10:53:49;14.40;;;4.95;;
6392;SDS011;3229;42.674;23.282;2023-09-19T10:56:20;7.57;;;6.00;;
6392;SDS011;3229;42.674;23.282;2023-09-19T10:58:59;5.60;;;4.63;;
6392;SDS011;3229;42.674;23.282;2023-09-19T11:01:42;6.80;;;5.50;;
6392;SDS011;3229;42.674;23.282;2023-09-19T11:04:21;9.30;;;5.05;;
6392;SDS011;3229;42.674;23.282;2023-09-19T11:07:00;5.32;;;4.82;;
6392;SDS011;3229;42.674;23.282;2023-09-19T11:09:46;6.20;;;4.88;;
6392;SDS011;3229;42.674;23.282;2023-09-19T11:21:38;7.10;;;5.03;;
6392;SDS011;3229;42.674;23.282;2023-09-19T11:24:29;6.53;;;5.03;;
6392;SDS011;3229;42.674;23.282;2023-09-19T11:27:14;8.10;;;5.38;;
6392;SDS011;3229;42.674;23.282;2023-09-19T11:29:43;8.93;;;4.95;;
6392;SDS011;3229;42.674;23.282;2023-09-19T11:32:10;6.70;;;5.20;;
6392;SDS011;3229;42.674;23.282;2023-09-19T11:34:39;6.55;;;4.95;;
6392;SDS011;3229;42.674;23.282;2023-09-19T11:40:10;6.00;;;4.60;;
6392;SDS011;3229;42.674;23.282;2023-09-19T11:42:41;8.15;;;5.18;;
6392;SDS011;3229;42.674;23.282;2023-09-19T11:48:11;13.38;;;5.28;;
6392;SDS011;3229;42.674;23.282;2023-09-19T11:50:42;7.38;;;5.53;;
6392;SDS011;3229;42.674;23.282;2023-09-19T11:53:09;8.77;;;5.07;;
6392;SDS011;3229;42.674;23.282;2023-09-19T11:55:36;5.90;;;5.07;;
6392;SDS011;3229;42.674;23.282;2023-09-19T11:58:04;6.70;;;4.90;;
6392;SDS011;3229;42.674;23.282;2023-09-19T12:00:33;8.68;;;4.88;;
6392;SDS011;3229;42.674;23.282;2023-09-19T12:03:04;5.68;;;4.80;;
6392;SDS011;3229;42.674;23.282;2023-09-19T12:05:36;10.27;;;5.22;;
6392;SDS011;3229;42.674;23.282;2023-09-19T12:08:05;6.50;;;4.70;;
6392;SDS011;3229;42.674;23.282;2023-09-19T12:10:34;7.45;;;4.90;;
6392;SDS011;3229;42.674;23.282;2023-09-19T12:13:15;9.68;;;5.75;;
6392;SDS011;3229;42.674;23.282;2023-09-19T12:15:42;7.97;;;4.90;;
6392;SDS011;3229;42.674;23.282;2023-09-19T12:18:10;8.93;;;4.90;;
6392;SDS011;3229;42.674;23.282;2023-09-19T12:20:53;5.88;;;5.20;;
6392;SDS011;3229;42.674;23.282;2023-09-19T12:23:21;10.43;;;5.50;;
6392;SDS011;3229;42.674;23.282;2023-09-19T12:25:48;8.00;;;5.47;;
6392;SDS011;3229;42.674;23.282;2023-09-19T12:28:18;8.18;;;4.55;;
6392;SDS011;3229;42.674;23.282;2023-09-19T12:30:47;18.73;;;5.25;;
6392;SDS011;3229;42.674;23.282;2023-09-19T12:33:15;8.13;;;5.57;;
6392;SDS011;3229;42.674;23.282;2023-09-19T12:35:44;9.63;;;5.72;;
6392;SDS011;3229;42.674;23.282;2023-09-19T12:38:23;5.75;;;4.95;;
6392;SDS011;3229;42.674;23.282;2023-09-19T12:40:53;8.10;;;5.72;;
6392;SDS011;3229;42.674;23.282;2023-09-19T12:43:22;9.32;;;4.72;;
6392;SDS011;3229;42.674;23.282;2023-09-19T12:45:49;9.25;;;5.25;;
6392;SDS011;3229;42.674;23.282;2023-09-19T12:48:18;5.28;;;4.80;;
6392;SDS011;3229;42.674;23.282;2023-09-19T12:50:59;7.30;;;5.13;;
6392;SDS011;3229;42.674;23.282;2023-09-19T12:53:32;7.47;;;5.35;;
6392;SDS011;3229;42.674;23.282;2023-09-19T12:56:01;5.57;;;4.65;;
6392;SDS011;3229;42.674;23.282;2023-09-19T12:58:31;6.63;;;4.43;;
6392;SDS011;3229;42.674;23.282;2023-09-19T13:01:00;10.10;;;4.90;;
6392;SDS011;3229;42.674;23.282;2023-09-19T13:03:28;6.78;;;4.82;;
6392;SDS011;3229;42.674;23.282;2023-09-19T13:05:58;5.88;;;4.68;;
6392;SDS011;3229;42.674;23.282;2023-09-19T13:08:28;10.38;;;5.22;;
6392;SDS011;3229;42.674;23.282;2023-09-19T13:13:44;7.60;;;5.07;;
6392;SDS011;3229;42.674;23.282;2023-09-19T13:16:13;10.10;;;5.00;;
6392;SDS011;3229;42.674;23.282;2023-09-19T13:18:45;8.80;;;4.60;;
6392;SDS011;3229;42.674;23.282;2023-09-19T13:21:16;7.80;;;5.03;;
6392;SDS011;3229;42.674;23.282;2023-09-19T13:23:52;5.47;;;4.90;;
6392;SDS011;3229;42.674;23.282;2023-09-19T13:26:21;5.03;;;4.45;;
6392;SDS011;3229;42.674;23.282;2023-09-19T13:28:47;7.95;;;5.15;;
6392;SDS011;3229;42.674;23.282;2023-09-19T13:31:14;10.07;;;5.35;;
6392;SDS011;3229;42.674;23.282;2023-09-19T13:33:44;8.15;;;5.00;;
6392;SDS011;3229;42.674;23.282;2023-09-19T13:36:12;4.68;;;4.22;;
6392;SDS011;3229;42.674;23.282;2023-09-19T13:38:39;6.20;;;5.03;;
6392;SDS011;3229;42.674;23.282;2023-09-19T13:41:07;4.80;;;4.35;;
6392;SDS011;3229;42.674;23.282;2023-09-19T13:43:36;8.45;;;5.00;;
6392;SDS011;3229;42.674;23.282;2023-09-19T13:46:03;5.10;;;4.63;;
6392;SDS011;3229;42.674;23.282;2023-09-19T13:48:32;5.88;;;4.95;;
6392;SDS011;3229;42.674;23.282;2023-09-19T13:51:00;11.38;;;5.15;;
6392;SDS011;3229;42.674;23.282;2023-09-19T13:53:28;6.72;;;4.88;;
6392;SDS011;3229;42.674;23.282;2023-09-19T13:55:54;7.07;;;4.53;;
6392;SDS011;3229;42.674;23.282;2023-09-19T13:58:21;12.77;;;5.00;;
6392;SDS011;3229;42.674;23.282;2023-09-19T14:00:50;7.35;;;4.47;;
6392;SDS011;3229;42.674;23.282;2023-09-19T14:03:20;7.75;;;4.78;;
6392;SDS011;3229;42.674;23.282;2023-09-19T14:05:47;6.97;;;4.82;;
6392;SDS011;3229;42.674;23.282;2023-09-19T14:08:16;5.53;;;4.70;;
6392;SDS011;3229;42.674;23.282;2023-09-19T14:10:43;5.88;;;4.63;;
6392;SDS011;3229;42.674;23.282;2023-09-19T14:13:10;5.93;;;4.53;;
6392;SDS011;3229;42.674;23.282;2023-09-19T14:15:38;6.10;;;4.70;;
6392;SDS011;3229;42.674;23.282;2023-09-19T14:18:06;10.30;;;4.97;;
6392;SDS011;3229;42.674;23.282;2023-09-19T14:20:37;8.02;;;5.30;;
6392;SDS011;3229;42.674;23.282;2023-09-19T14:23:05;4.80;;;4.40;;
6392;SDS011;3229;42.674;23.282;2023-09-19T14:25:33;5.80;;;4.45;;
6392;SDS011;3229;42.674;23.282;2023-09-19T14:28:01;5.57;;;4.68;;
6392;SDS011;3229;42.674;23.282;2023-09-19T14:30:28;5.60;;;3.83;;
6392;SDS011;3229;42.674;23.282;2023-09-19T14:32:54;7.72;;;4.65;;
6392;SDS011;3229;42.674;23.282;2023-09-19T14:35:24;6.32;;;4.60;;
6392;SDS011;3229;42.674;23.282;2023-09-19T14:37:51;4.90;;;4.38;;
6392;SDS011;3229;42.674;23.282;2023-09-19T14:40:18;5.50;;;4.60;;
6392;SDS011;3229;42.674;23.282;2023-09-19T14:42:45;6.75;;;4.38;;
6392;SDS011;3229;42.674;23.282;2023-09-19T14:45:13;6.15;;;5.05;;
6392;SDS011;3229;42.674;23.282;2023-09-19T14:47:43;10.10;;;5.07;;
6392;SDS011;3229;42.674;23.282;2023-09-19T14:50:10;9.43;;;5.18;;
6392;SDS011;3229;42.674;23.282;2023-09-19T14:52:39;8.82;;;5.25;;
6392;SDS011;3229;42.674;23.282;2023-09-19T14:55:08;8.23;;;5.07;;
6392;SDS011;3229;42.674;23.282;2023-09-19T14:57:39;8.77;;;5.90;;
6392;SDS011;3229;42.674;23.282;2023-09-19T15:00:09;5.80;;;5.28;;
6392;SDS011;3229;42.674;23.282;2023-09-19T15:02:37;8.23;;;5.43;;
6392;SDS011;3229;42.674;23.282;2023-09-19T15:05:05;6.50;;;5.25;;
6392;SDS011;3229;42.674;23.282;2023-09-19T15:07:34;7.57;;;5.53;;
6392;SDS011;3229;42.674;23.282;2023-09-19T15:10:03;9.63;;;5.63;;
6392;SDS011;3229;42.674;23.282;2023-09-19T15:12:32;6.60;;;5.57;;
6392;SDS011;3229;42.674;23.282;2023-09-19T15:15:00;15.48;;;8.38;;
6392;SDS011;3229;42.674;23.282;2023-09-19T15:17:27;12.77;;;8.27;;
6392;SDS011;3229;42.674;23.282;2023-09-19T15:19:53;14.95;;;9.25;;
6392;SDS011;3229;42.674;23.282;2023-09-19T15:22:20;11.40;;;9.82;;
6392;SDS011;3229;42.674;23.282;2023-09-19T15:24:47;13.25;;;10.90;;
6392;SDS011;3229;42.674;23.282;2023-09-19T15:27:15;13.57;;;10.02;;
6392;SDS011;3229;42.674;23.282;2023-09-19T15:29:44;10.77;;;8.32;;
6392;SDS011;3229;42.674;23.282;2023-09-19T15:32:11;15.43;;;6.95;;
6392;SDS011;3229;42.674;23.282;2023-09-19T15:34:38;8.75;;;6.95;;